createdAt,value
2019-02-18T00:00:25.979Z,9.51
2019-02-18T00:03:56.080Z,7.39
2019-02-18T00:07:26.212Z,7.5
2019-02-18T00:10:56.434Z,8.31
2019-02-18T00:14:26.534Z,8.3
2019-02-18T00:17:56.678Z,8.19
2019-02-18T00:21:26.878Z,7.3
2019-02-18T00:24:57.991Z,8.14
2019-02-18T00:28:28.111Z,7.98
2019-02-18T00:31:58.203Z,8.33
2019-02-18T00:35:28.424Z,7.57
2019-02-18T00:38:58.406Z,8.75
2019-02-18T00:42:28.507Z,8.97
2019-02-18T00:45:58.569Z,9.51
2019-02-18T00:49:28.699Z,8.12
2019-02-18T00:52:58.752Z,9.38
2019-02-18T00:56:28.944Z,8.24
2019-02-18T00:59:58.966Z,9.25
2019-02-18T01:03:29.090Z,7.82
2019-02-18T01:06:59.140Z,9.61
2019-02-18T01:10:29.220Z,8.54
2019-02-18T01:13:59.340Z,8.02
2019-02-18T01:17:29.453Z,9.57
2019-02-18T01:20:59.451Z,9.54
2019-02-18T01:24:29.529Z,10.84
2019-02-18T01:28:00.688Z,8.89
2019-02-18T01:31:30.723Z,10.6
2019-02-18T01:35:00.751Z,9.09
2019-02-18T01:38:30.893Z,10.51
2019-02-18T01:42:00.864Z,9.34
2019-02-18T01:45:30.946Z,8.79
2019-02-18T01:49:01.278Z,10.05
2019-02-18T01:52:31.339Z,9.47
2019-02-18T01:56:01.361Z,11.06
2019-02-18T01:59:31.493Z,8.79
2019-02-18T02:00:17.313Z,10.55
2019-02-18T02:03:47.505Z,8.16
2019-02-18T02:07:17.606Z,11.39
2019-02-18T02:10:47.718Z,11.32
2019-02-18T02:14:17.869Z,10.86
2019-02-18T02:17:47.980Z,10.81
2019-02-18T02:21:17.982Z,10.89
2019-02-18T02:24:48.134Z,9.69
2019-02-18T02:28:19.375Z,10.12
2019-02-18T02:31:49.494Z,9.8
2019-02-18T02:35:19.721Z,9.39
2019-02-18T02:38:49.782Z,8.74
2019-02-18T02:42:19.903Z,10.89
2019-02-18T02:45:49.993Z,11.1
2019-02-18T02:49:20.085Z,9.92
2019-02-18T02:52:50.146Z,10.29
2019-02-18T02:56:20.292Z,11.4
2019-02-18T02:59:50.256Z,9.99
2019-02-18T03:03:20.304Z,10.01
2019-02-18T03:06:50.339Z,9.46
2019-02-18T03:10:20.475Z,11.97
2019-02-18T03:13:50.497Z,12.71
2019-02-18T03:17:20.602Z,13.35
2019-02-18T03:20:50.710Z,12.22
2019-02-18T03:24:20.752Z,11.27
2019-02-18T03:27:54.587Z,9.95
2019-02-18T03:31:27.074Z,8.14
2019-02-18T03:34:57.107Z,10.85
2019-02-18T03:38:31.399Z,9.92
2019-02-18T03:42:02.159Z,14.67
2019-02-18T03:45:32.280Z,8.91
2019-02-18T03:49:02.225Z,10.69
2019-02-18T03:52:32.291Z,10.06
2019-02-18T03:56:02.405Z,12.14
2019-02-18T03:59:32.757Z,19.46
2019-02-18T04:00:17.194Z,12.89
2019-02-18T04:03:47.223Z,11.35
2019-02-18T04:07:17.283Z,10.95
2019-02-18T04:10:47.311Z,11.82
2019-02-18T04:14:17.393Z,12.15
2019-02-18T04:17:47.414Z,9.76
2019-02-18T04:21:17.422Z,10.8
2019-02-18T04:24:47.411Z,13.11
2019-02-18T04:28:17.489Z,12.1
2019-02-18T04:31:48.620Z,13.05
2019-02-18T04:35:18.713Z,15.2
2019-02-18T04:38:54.187Z,16.92
2019-02-18T04:42:24.643Z,14.12
2019-02-18T04:45:54.746Z,14.38
2019-02-18T04:49:24.818Z,17.15
2019-02-18T04:52:54.879Z,15.85
2019-02-18T04:56:25.031Z,22.38
2019-02-18T04:59:55.093Z,17.94
2019-02-18T05:03:25.060Z,18.26
2019-02-18T05:06:55.036Z,17.07
2019-02-18T05:10:25.044Z,17.75
2019-02-18T05:13:55.069Z,15.11
2019-02-18T05:17:25.203Z,17.03
2019-02-18T05:20:55.317Z,12.47
2019-02-18T05:24:25.387Z,13.26
2019-02-18T05:27:55.601Z,14.3
2019-02-18T05:31:25.767Z,15.35
2019-02-18T05:34:56.782Z,14.1
2019-02-18T05:38:26.880Z,15.59
2019-02-18T05:41:56.861Z,13.47
2019-02-18T05:45:27.063Z,12.39
2019-02-18T05:48:57.214Z,12.12
2019-02-18T05:52:27.266Z,15.52
2019-02-18T05:55:57.394Z,12.15
2019-02-18T05:59:27.479Z,12.66
2019-02-18T06:00:17.919Z,13.18
2019-02-18T06:03:48.000Z,10.5
2019-02-18T06:07:18.057Z,11.76
2019-02-18T06:10:48.174Z,18.9
2019-02-18T06:14:18.225Z,19.16
2019-02-18T06:17:48.327Z,39.45
2019-02-18T06:21:18.470Z,36.05
2019-02-18T06:24:48.490Z,29.29
2019-02-18T06:28:18.622Z,19.62
2019-02-18T06:31:48.784Z,19.79
2019-02-18T06:35:19.055Z,29.49
2019-02-18T06:38:48.995Z,36.26
2019-02-18T06:42:19.089Z,28.76
2019-02-18T06:46:01.142Z,22.33
2019-02-18T06:49:32.252Z,17.25
2019-02-18T06:53:02.274Z,23.99
2019-02-18T06:57:57.756Z,25.38
2019-02-18T07:01:33.198Z,26.18
2019-02-18T07:05:42.199Z,28.58
2019-02-18T07:09:18.142Z,27.05
2019-02-18T07:12:50.984Z,29.06
2019-02-18T07:16:21.075Z,26.96
2019-02-18T07:19:51.176Z,24.62
2019-02-18T07:23:21.258Z,26.24
2019-02-18T07:26:51.460Z,22.99
2019-02-18T07:30:21.551Z,22.01
2019-02-18T07:33:51.643Z,19.28
2019-02-18T07:37:22.645Z,24.45
2019-02-18T07:40:52.687Z,19.76
2019-02-18T07:44:22.668Z,17.92
2019-02-18T07:47:53.011Z,23.59
2019-02-18T07:51:23.052Z,18.99
2019-02-18T07:54:53.164Z,19.92
2019-02-18T07:58:23.215Z,19.8
2019-02-18T08:00:17.126Z,23.2
2019-02-18T08:03:47.188Z,21.48
2019-02-18T08:07:17.460Z,41.53
2019-02-18T08:19:35.516Z,22.43
2019-02-18T08:23:05.497Z,16.15
2019-02-18T08:26:35.570Z,17.29
2019-02-18T08:30:07.298Z,17.84
2019-02-18T08:33:37.369Z,16.95
2019-02-18T08:37:07.498Z,18.18
2019-02-18T08:40:38.757Z,17.26
2019-02-18T08:44:08.844Z,16.43
2019-02-18T08:47:38.911Z,16.91
2019-02-18T08:51:08.951Z,21.99
2019-02-18T08:54:39.065Z,17.74
2019-02-18T08:58:09.142Z,16.36
2019-02-18T09:01:39.287Z,17.61
2019-02-18T09:05:09.524Z,20.16
2019-02-18T09:08:39.607Z,23.2
2019-02-18T09:12:09.733Z,20.5
2019-02-18T09:15:39.826Z,20.9
2019-02-18T09:19:09.856Z,24.57
2019-02-18T09:23:50.123Z,22.42
2019-02-18T09:27:20.229Z,24.85
2019-02-18T09:30:51.632Z,25.6
2019-02-18T09:34:21.666Z,24.76
2019-02-18T09:37:51.811Z,29.39
2019-02-18T09:41:22.918Z,25.12
2019-02-18T09:44:53.100Z,23.94
2019-02-18T09:48:23.422Z,26.32
2019-02-18T09:51:53.556Z,25.3
2019-02-18T09:55:23.655Z,24.79
2019-02-18T09:58:53.720Z,23.05
2019-02-18T10:00:17.098Z,25.09
2019-02-18T10:03:47.250Z,25.51
2019-02-18T10:07:17.352Z,22.31
2019-02-18T10:10:55.447Z,28.46
2019-02-18T10:14:26.349Z,25.91
2019-02-18T10:17:56.428Z,29.89
2019-02-18T10:21:26.620Z,25.09
2019-02-18T10:24:56.632Z,25.32
2019-02-18T10:28:26.804Z,23.39
2019-02-18T10:31:56.906Z,20.9
2019-02-18T10:35:26.981Z,23.35
2019-02-18T10:38:57.030Z,24.85
2019-02-18T10:42:28.122Z,24.18
2019-02-18T10:45:58.166Z,23.54
2019-02-18T10:49:28.486Z,25.66
2019-02-18T10:52:58.570Z,24.19
2019-02-18T10:56:28.780Z,23.44
2019-02-18T10:59:59.377Z,22.94
2019-02-18T11:03:29.633Z,23.57
2019-02-18T11:06:59.786Z,21.38
2019-02-18T11:10:29.878Z,23.95
2019-02-18T11:13:59.920Z,27.06
2019-02-18T11:17:38.674Z,22.71
2019-02-18T11:21:09.262Z,23.71
2019-02-18T11:24:39.396Z,20.81
2019-02-18T11:28:09.487Z,14.85
2019-02-18T11:31:39.702Z,16.64
2019-02-18T11:35:09.923Z,14.28
2019-02-18T11:38:40.185Z,17.7
2019-02-18T11:42:10.207Z,13.41
2019-02-18T11:45:41.310Z,15.69
2019-02-18T11:49:11.352Z,14.34
2019-02-18T11:52:41.616Z,13.18
2019-02-18T11:56:11.745Z,13.09
2019-02-18T11:59:41.887Z,12.97
2019-02-18T12:00:16.299Z,13.06
2019-02-18T12:03:50.066Z,14.43
2019-02-18T12:07:45.971Z,14.6
2019-02-18T12:11:16.085Z,13.12
2019-02-18T12:14:46.159Z,14.2
2019-02-18T12:18:16.472Z,15.18
2019-02-18T12:21:47.003Z,13.98
2019-02-18T12:25:17.215Z,13.26
2019-02-18T12:28:47.399Z,15.1
2019-02-18T12:32:17.563Z,14.9
2019-02-18T12:35:47.750Z,14.94
2019-02-18T12:39:17.822Z,16.11
2019-02-18T12:42:48.113Z,15.04
2019-02-18T12:46:18.394Z,16.16
2019-02-18T12:49:50.926Z,15.83
2019-02-18T12:53:21.145Z,14.62
2019-02-18T15:07:24.564Z,27.06
2019-02-18T15:10:54.670Z,26.01
2019-02-18T15:14:24.872Z,21.91
2019-02-18T15:17:55.232Z,28.26
2019-02-18T15:21:25.539Z,29.6
2019-02-18T15:24:55.540Z,25.06
2019-02-18T15:28:25.680Z,21.99
2019-02-18T15:31:55.786Z,19.7
2019-02-18T15:35:25.903Z,20.74
2019-02-18T15:38:56.058Z,27.76
2019-02-18T15:42:26.269Z,21.44
2019-02-18T15:45:56.309Z,21.06
2019-02-18T15:49:27.355Z,32.69
2019-02-18T15:52:57.364Z,33.89
2019-02-18T15:56:27.556Z,21.9
2019-02-18T15:59:57.602Z,19.99
2019-02-18T16:00:18.662Z,20.1
2019-02-18T16:03:49.138Z,20.84
2019-02-18T16:07:19.464Z,22.44
2019-02-18T16:10:49.629Z,22.56
2019-02-18T16:14:19.734Z,20.81
2019-02-18T16:17:49.800Z,23.79
2019-02-18T16:21:19.816Z,14.56
2019-02-18T16:24:49.922Z,12.5
2019-02-18T16:28:20.028Z,40.85
2019-02-18T16:31:50.314Z,32.54
2019-02-18T16:35:20.409Z,55.59
2019-02-18T16:38:50.667Z,75.06
2019-02-18T16:42:20.741Z,50.3
2019-02-18T16:45:50.766Z,51.44
2019-02-18T16:49:21.292Z,44.58
2019-02-18T16:52:52.438Z,27.61
2019-02-18T16:56:22.604Z,18
2019-02-18T16:59:52.639Z,17.44
2019-02-18T17:03:22.745Z,14.49
2019-02-18T17:06:53.011Z,12.15
2019-02-18T17:10:23.356Z,14.12
2019-02-18T17:13:53.522Z,14.04
2019-02-18T17:17:23.748Z,15.73
2019-02-18T17:20:53.803Z,13.59
2019-02-18T17:24:23.899Z,12.84
2019-02-18T17:27:53.980Z,12.26
2019-02-18T17:31:23.960Z,10.43
2019-02-18T17:34:54.166Z,12.46
2019-02-18T17:38:24.263Z,10.88
2019-02-18T17:41:54.396Z,13.81
2019-02-18T17:45:24.482Z,13.05
2019-02-18T17:48:54.649Z,12.77
2019-02-18T17:52:24.775Z,13.88
2019-02-18T17:55:55.789Z,11.39
2019-02-18T17:59:25.824Z,12.86
2019-02-18T18:00:17.165Z,15.55
2019-02-18T18:03:47.179Z,12.6
2019-02-18T18:07:17.315Z,14.55
2019-02-18T18:10:47.539Z,14.36
2019-02-18T18:14:17.627Z,13.46
2019-02-18T18:17:47.716Z,12.03
2019-02-18T18:21:17.801Z,11.19
2019-02-18T18:24:47.933Z,13.03
2019-02-18T18:28:18.138Z,12.12
2019-02-18T18:31:48.294Z,14.1
2019-02-18T18:35:18.340Z,11.56
2019-02-18T18:38:48.367Z,12.32
2019-02-18T18:42:18.931Z,11.24
2019-02-18T18:45:49.356Z,12.55
2019-02-18T18:49:19.393Z,12.59
2019-02-18T18:52:49.444Z,12.93
2019-02-18T18:56:20.393Z,11.45
2019-02-18T18:59:50.439Z,17.75
2019-02-18T19:03:20.675Z,14.79
2019-02-18T19:06:50.873Z,13.25
2019-02-18T19:10:20.985Z,14.31
2019-02-18T19:13:51.092Z,15.03
2019-02-18T19:17:21.167Z,15.71
2019-02-18T19:20:51.332Z,12.85
2019-02-18T19:24:21.358Z,15.96
2019-02-18T19:27:51.448Z,14.71
2019-02-18T19:31:21.559Z,14.21
2019-02-18T19:34:51.541Z,14.4
2019-02-18T19:38:22.010Z,13.99
2019-02-18T19:41:52.416Z,13.12
2019-02-18T19:45:22.518Z,17.6
2019-02-18T19:48:52.678Z,15.62
2019-02-18T19:52:22.782Z,12.59
2019-02-18T19:55:52.998Z,14.06
2019-02-18T19:59:23.981Z,15.01
2019-02-18T20:00:16.659Z,17.49
2019-02-18T20:03:46.718Z,15.97
2019-02-18T20:07:16.821Z,15.26
2019-02-18T20:10:46.920Z,13.47
2019-02-18T20:14:17.085Z,14.36
2019-02-18T20:17:47.141Z,15.56
2019-02-18T20:21:17.127Z,15.44
2019-02-18T20:24:47.231Z,15.78
2019-02-18T20:28:17.217Z,16.74
2019-02-18T20:31:47.272Z,17.56
2019-02-18T20:35:17.468Z,16.24
2019-02-18T20:38:47.594Z,17.74
2019-02-18T20:42:17.649Z,16.54
2019-02-18T20:45:47.765Z,16.81
2019-02-18T20:49:17.811Z,17.74
2019-02-18T20:52:48.381Z,19.91
2019-02-18T20:56:18.845Z,16.94
2019-02-18T20:59:49.848Z,15.57
2019-02-18T21:03:19.844Z,19.74
2019-02-18T21:06:49.948Z,16.8
2019-02-18T21:10:19.967Z,16.51
2019-02-18T21:13:50.027Z,18.8
2019-02-18T21:17:20.118Z,19.24
2019-02-18T21:20:51.272Z,17.26
2019-02-18T21:24:21.467Z,18.14
2019-02-18T21:27:51.671Z,17.38
2019-02-18T21:31:21.759Z,18.76
2019-02-18T21:34:51.874Z,20.67
2019-02-18T21:38:21.928Z,18.67
2019-02-18T21:41:52.105Z,18.41
2019-02-18T21:45:22.149Z,17.56
2019-02-18T21:48:52.345Z,19.46
2019-02-18T21:52:22.410Z,19
2019-02-18T21:55:52.437Z,19.08
2019-02-18T21:59:22.821Z,16.08
2019-02-18T22:00:19.480Z,20.25
2019-02-18T22:03:49.606Z,18.25
2019-02-18T22:07:19.691Z,17.84
2019-02-18T22:10:50.166Z,19.11
2019-02-18T22:14:20.573Z,17.38
2019-02-18T22:17:50.998Z,19.46
2019-02-18T22:21:21.040Z,20.39
2019-02-18T22:24:51.128Z,18.19
2019-02-18T22:28:21.154Z,19.32
2019-02-18T22:31:51.367Z,16.79
2019-02-18T22:35:21.376Z,17.66
2019-02-18T22:38:51.492Z,17.32
2019-02-18T22:42:21.586Z,18.07
2019-02-18T22:45:51.632Z,16.8
2019-02-18T22:49:21.727Z,17.55
2019-02-18T22:52:51.843Z,15.21
2019-02-18T22:56:21.848Z,16.73
2019-02-18T22:59:51.934Z,15.29
2019-02-18T23:03:22.980Z,17.45
2019-02-18T23:06:53.115Z,16.99
2019-02-18T23:10:23.114Z,17.65
2019-02-18T23:13:53.248Z,15.38
2019-02-18T23:17:23.312Z,14.92
2019-02-18T23:20:53.357Z,16.45
2019-02-18T23:24:23.433Z,13.72
2019-02-18T23:27:53.488Z,15.45
2019-02-18T23:31:23.615Z,14.29
2019-02-18T23:34:53.619Z,15.68
2019-02-18T23:38:23.705Z,15.26
2019-02-18T23:41:53.772Z,13.85
2019-02-18T23:45:23.792Z,15.3
2019-02-18T23:48:53.986Z,15
2019-02-18T23:52:24.023Z,15.47
2019-02-18T23:55:54.117Z,13
2019-02-18T23:59:24.173Z,14.38
